sensor_id;sensor_type;location;lat;lon;timestamp;P1;durP1;ratioP1;P2;durP2;ratioP2
323;SDS011;149;51.094;17.002;2023-02-28T00:01:19;21.48;;;9.57;;
323;SDS011;149;51.094;17.002;2023-02-28T00:03:45;14.98;;;9.00;;
323;SDS011;149;51.094;17.002;2023-02-28T00:06:13;18.30;;;10.52;;
323;SDS011;149;51.094;17.002;2023-02-28T00:08:40;17.23;;;9.20;;
323;SDS011;149;51.094;17.002;2023-02-28T00:11:09;17.38;;;10.30;;
323;SDS011;149;51.094;17.002;2023-02-28T00:13:43;17.52;;;10.90;;
323;SDS011;149;51.094;17.002;2023-02-28T00:16:16;19.30;;;12.10;;
323;SDS011;149;51.094;17.002;2023-02-28T00:18:46;15.65;;;8.82;;
323;SDS011;149;51.094;17.002;2023-02-28T00:21:15;19.42;;;11.10;;
323;SDS011;149;51.094;17.002;2023-02-28T00:23:42;19.48;;;11.07;;
323;SDS011;149;51.094;17.002;2023-02-28T00:26:10;11.48;;;8.55;;
323;SDS011;149;51.094;17.002;2023-02-28T00:28:37;16.13;;;10.27;;
323;SDS011;149;51.094;17.002;2023-02-28T00:31:04;14.63;;;8.35;;
323;SDS011;149;51.094;17.002;2023-02-28T00:33:31;13.90;;;8.77;;
323;SDS011;149;51.094;17.002;2023-02-28T00:36:03;14.15;;;9.68;;
323;SDS011;149;51.094;17.002;2023-02-28T00:38:34;14.88;;;9.35;;
323;SDS011;149;51.094;17.002;2023-02-28T00:41:01;16.00;;;8.27;;
323;SDS011;149;51.094;17.002;2023-02-28T00:43:32;15.23;;;8.57;;
323;SDS011;149;51.094;17.002;2023-02-28T00:46:03;15.50;;;9.15;;
323;SDS011;149;51.094;17.002;2023-02-28T00:48:31;11.93;;;8.38;;
323;SDS011;149;51.094;17.002;2023-02-28T00:50:58;14.73;;;9.30;;
323;SDS011;149;51.094;17.002;2023-02-28T00:53:28;17.17;;;10.00;;
323;SDS011;149;51.094;17.002;2023-02-28T00:55:55;13.65;;;9.32;;
323;SDS011;149;51.094;17.002;2023-02-28T00:58:22;14.30;;;8.80;;
323;SDS011;149;51.094;17.002;2023-02-28T01:00:52;17.08;;;10.50;;
323;SDS011;149;51.094;17.002;2023-02-28T01:03:20;18.67;;;10.07;;
323;SDS011;149;51.094;17.002;2023-02-28T01:05:48;12.60;;;9.63;;
323;SDS011;149;51.094;17.002;2023-02-28T01:08:16;20.05;;;10.15;;
323;SDS011;149;51.094;17.002;2023-02-28T01:10:42;17.02;;;10.23;;
323;SDS011;149;51.094;17.002;2023-02-28T01:13:10;17.00;;;12.25;;
323;SDS011;149;51.094;17.002;2023-02-28T01:15:38;16.83;;;11.73;;
323;SDS011;149;51.094;17.002;2023-02-28T01:18:28;18.58;;;10.60;;
323;SDS011;149;51.094;17.002;2023-02-28T01:21:06;17.13;;;10.73;;
323;SDS011;149;51.094;17.002;2023-02-28T01:24:06;13.10;;;9.70;;
323;SDS011;149;51.094;17.002;2023-02-28T01:26:39;15.00;;;9.95;;
323;SDS011;149;51.094;17.002;2023-02-28T01:29:08;18.02;;;10.63;;
323;SDS011;149;51.094;17.002;2023-02-28T01:31:35;13.32;;;10.27;;
323;SDS011;149;51.094;17.002;2023-02-28T01:34:17;18.48;;;10.50;;
323;SDS011;149;51.094;17.002;2023-02-28T01:37:19;17.95;;;10.52;;
323;SDS011;149;51.094;17.002;2023-02-28T01:40:08;20.20;;;11.45;;
323;SDS011;149;51.094;17.002;2023-02-28T01:42:38;16.58;;;8.98;;
323;SDS011;149;51.094;17.002;2023-02-28T01:45:25;13.98;;;10.25;;
323;SDS011;149;51.094;17.002;2023-02-28T01:47:58;18.90;;;10.13;;
323;SDS011;149;51.094;17.002;2023-02-28T01:51:02;16.13;;;9.68;;
323;SDS011;149;51.094;17.002;2023-02-28T01:53:59;18.45;;;9.82;;
323;SDS011;149;51.094;17.002;2023-02-28T01:56:37;16.42;;;10.93;;
323;SDS011;149;51.094;17.002;2023-02-28T01:59:50;17.80;;;10.20;;
323;SDS011;149;51.094;17.002;2023-02-28T02:02:39;17.35;;;10.63;;
323;SDS011;149;51.094;17.002;2023-02-28T02:05:38;11.38;;;9.77;;
323;SDS011;149;51.094;17.002;2023-02-28T02:08:25;13.45;;;9.55;;
323;SDS011;149;51.094;17.002;2023-02-28T02:11:00;19.90;;;11.55;;
323;SDS011;149;51.094;17.002;2023-02-28T02:38:49;13.38;;;9.35;;
323;SDS011;149;51.094;17.002;2023-02-28T02:41:24;12.88;;;8.05;;
323;SDS011;149;51.094;17.002;2023-02-28T02:46:42;15.48;;;8.90;;
323;SDS011;149;51.094;17.002;2023-02-28T02:49:15;16.05;;;9.55;;
323;SDS011;149;51.094;17.002;2023-02-28T02:52:04;12.43;;;9.38;;
323;SDS011;149;51.094;17.002;2023-02-28T02:54:38;26.15;;;9.93;;
323;SDS011;149;51.094;17.002;2023-02-28T02:57:11;13.85;;;9.10;;
323;SDS011;149;51.094;17.002;2023-02-28T02:59:44;12.00;;;8.55;;
323;SDS011;149;51.094;17.002;2023-02-28T03:02:14;19.55;;;8.98;;
323;SDS011;149;51.094;17.002;2023-02-28T03:04:43;16.02;;;9.05;;
323;SDS011;149;51.094;17.002;2023-02-28T03:07:18;11.93;;;9.10;;
323;SDS011;149;51.094;17.002;2023-02-28T03:09:50;15.35;;;8.90;;
323;SDS011;149;51.094;17.002;2023-02-28T03:12:19;19.95;;;10.20;;
323;SDS011;149;51.094;17.002;2023-02-28T03:15:03;13.95;;;9.95;;
323;SDS011;149;51.094;17.002;2023-02-28T03:18:10;14.25;;;10.07;;
323;SDS011;149;51.094;17.002;2023-02-28T03:21:20;16.83;;;11.43;;
323;SDS011;149;51.094;17.002;2023-02-28T03:24:11;18.08;;;10.77;;
323;SDS011;149;51.094;17.002;2023-02-28T03:27:03;18.65;;;11.90;;
323;SDS011;149;51.094;17.002;2023-02-28T03:30:00;16.42;;;11.55;;
323;SDS011;149;51.094;17.002;2023-02-28T03:35:38;19.02;;;12.00;;
323;SDS011;149;51.094;17.002;2023-02-28T03:38:36;19.50;;;11.90;;
323;SDS011;149;51.094;17.002;2023-02-28T03:41:25;19.08;;;10.98;;
323;SDS011;149;51.094;17.002;2023-02-28T03:45:04;21.30;;;12.30;;
323;SDS011;149;51.094;17.002;2023-02-28T03:47:48;20.15;;;13.05;;
323;SDS011;149;51.094;17.002;2023-02-28T03:50:39;17.90;;;11.95;;
323;SDS011;149;51.094;17.002;2023-02-28T04:00:14;21.02;;;11.30;;
323;SDS011;149;51.094;17.002;2023-02-28T04:03:00;20.55;;;13.27;;
323;SDS011;149;51.094;17.002;2023-02-28T04:05:43;17.48;;;10.55;;
323;SDS011;149;51.094;17.002;2023-02-28T04:08:17;17.95;;;12.10;;
323;SDS011;149;51.094;17.002;2023-02-28T04:10:45;21.50;;;11.10;;
323;SDS011;149;51.094;17.002;2023-02-28T04:13:17;12.40;;;10.35;;
323;SDS011;149;51.094;17.002;2023-02-28T04:15:44;17.13;;;12.15;;
323;SDS011;149;51.094;17.002;2023-02-28T04:18:11;20.58;;;12.68;;
323;SDS011;149;51.094;17.002;2023-02-28T04:20:38;21.55;;;14.23;;
323;SDS011;149;51.094;17.002;2023-02-28T04:23:05;18.92;;;11.38;;
323;SDS011;149;51.094;17.002;2023-02-28T04:25:32;15.73;;;11.80;;
323;SDS011;149;51.094;17.002;2023-02-28T04:27:59;17.90;;;11.93;;
323;SDS011;149;51.094;17.002;2023-02-28T04:30:26;17.17;;;11.80;;
323;SDS011;149;51.094;17.002;2023-02-28T04:32:53;25.00;;;13.40;;
323;SDS011;149;51.094;17.002;2023-02-28T04:35:20;15.75;;;12.05;;
323;SDS011;149;51.094;17.002;2023-02-28T04:37:47;23.00;;;13.02;;
323;SDS011;149;51.094;17.002;2023-02-28T04:40:15;19.73;;;11.98;;
323;SDS011;149;51.094;17.002;2023-02-28T04:42:42;23.45;;;12.85;;
323;SDS011;149;51.094;17.002;2023-02-28T04:45:09;15.23;;;11.32;;
323;SDS011;149;51.094;17.002;2023-02-28T04:47:36;16.05;;;10.88;;
323;SDS011;149;51.094;17.002;2023-02-28T04:50:03;13.02;;;10.10;;
323;SDS011;149;51.094;17.002;2023-02-28T04:52:31;16.02;;;10.90;;
323;SDS011;149;51.094;17.002;2023-02-28T04:54:58;17.27;;;10.10;;
323;SDS011;149;51.094;17.002;2023-02-28T04:57:24;13.98;;;9.00;;
323;SDS011;149;51.094;17.002;2023-02-28T04:59:52;14.93;;;9.98;;
323;SDS011;149;51.094;17.002;2023-02-28T05:02:21;15.68;;;8.30;;
323;SDS011;149;51.094;17.002;2023-02-28T05:04:50;13.70;;;9.45;;
323;SDS011;149;51.094;17.002;2023-02-28T05:07:17;17.73;;;11.35;;
323;SDS011;149;51.094;17.002;2023-02-28T05:09:44;16.20;;;9.63;;
323;SDS011;149;51.094;17.002;2023-02-28T05:12:11;14.07;;;10.27;;
323;SDS011;149;51.094;17.002;2023-02-28T05:14:38;21.75;;;10.55;;
323;SDS011;149;51.094;17.002;2023-02-28T05:17:05;16.25;;;10.18;;
323;SDS011;149;51.094;17.002;2023-02-28T05:19:31;15.02;;;11.00;;
323;SDS011;149;51.094;17.002;2023-02-28T05:21:58;16.58;;;12.32;;
323;SDS011;149;51.094;17.002;2023-02-28T05:24:26;14.60;;;10.65;;
323;SDS011;149;51.094;17.002;2023-02-28T05:26:53;16.45;;;10.77;;
323;SDS011;149;51.094;17.002;2023-02-28T05:29:21;16.65;;;10.45;;
323;SDS011;149;51.094;17.002;2023-02-28T05:31:48;14.95;;;10.20;;
323;SDS011;149;51.094;17.002;2023-02-28T05:34:15;17.38;;;10.60;;
323;SDS011;149;51.094;17.002;2023-02-28T05:36:42;12.35;;;9.80;;
323;SDS011;149;51.094;17.002;2023-02-28T05:39:10;14.20;;;10.00;;
323;SDS011;149;51.094;17.002;2023-02-28T05:41:42;11.18;;;8.90;;
323;SDS011;149;51.094;17.002;2023-02-28T05:44:09;14.95;;;9.23;;
323;SDS011;149;51.094;17.002;2023-02-28T05:46:37;17.65;;;9.70;;
323;SDS011;149;51.094;17.002;2023-02-28T05:49:04;16.13;;;9.27;;
323;SDS011;149;51.094;17.002;2023-02-28T05:51:32;13.35;;;9.60;;
323;SDS011;149;51.094;17.002;2023-02-28T05:54:01;15.82;;;10.52;;
323;SDS011;149;51.094;17.002;2023-02-28T05:56:28;15.93;;;10.93;;
323;SDS011;149;51.094;17.002;2023-02-28T05:58:55;16.60;;;12.30;;
323;SDS011;149;51.094;17.002;2023-02-28T06:01:32;21.33;;;9.57;;
323;SDS011;149;51.094;17.002;2023-02-28T06:04:01;18.58;;;13.30;;
323;SDS011;149;51.094;17.002;2023-02-28T06:06:29;11.20;;;9.15;;
323;SDS011;149;51.094;17.002;2023-02-28T06:08:56;11.70;;;9.48;;
323;SDS011;149;51.094;17.002;2023-02-28T06:11:24;15.82;;;10.45;;
323;SDS011;149;51.094;17.002;2023-02-28T06:13:56;17.30;;;11.52;;
323;SDS011;149;51.094;17.002;2023-02-28T06:16:29;20.05;;;11.95;;
323;SDS011;149;51.094;17.002;2023-02-28T06:18:58;24.80;;;11.52;;
323;SDS011;149;51.094;17.002;2023-02-28T06:21:26;17.65;;;10.65;;
323;SDS011;149;51.094;17.002;2023-02-28T06:23:54;13.77;;;10.30;;
323;SDS011;149;51.094;17.002;2023-02-28T06:26:22;15.00;;;9.68;;
323;SDS011;149;51.094;17.002;2023-02-28T06:28:49;16.27;;;10.77;;
323;SDS011;149;51.094;17.002;2023-02-28T06:31:17;11.25;;;9.35;;
323;SDS011;149;51.094;17.002;2023-02-28T06:33:44;10.88;;;9.65;;
323;SDS011;149;51.094;17.002;2023-02-28T06:36:15;13.38;;;9.75;;
323;SDS011;149;51.094;17.002;2023-02-28T06:38:57;9.52;;;8.52;;
323;SDS011;149;51.094;17.002;2023-02-28T06:41:25;13.27;;;10.40;;
323;SDS011;149;51.094;17.002;2023-02-28T06:44:04;13.60;;;9.85;;
323;SDS011;149;51.094;17.002;2023-02-28T06:46:32;15.23;;;9.90;;
323;SDS011;149;51.094;17.002;2023-02-28T06:48:59;14.18;;;10.00;;
323;SDS011;149;51.094;17.002;2023-02-28T06:51:27;15.07;;;9.10;;
323;SDS011;149;51.094;17.002;2023-02-28T06:53:54;11.23;;;8.70;;
323;SDS011;149;51.094;17.002;2023-02-28T06:56:21;9.55;;;8.55;;
323;SDS011;149;51.094;17.002;2023-02-28T06:58:48;12.15;;;8.13;;
323;SDS011;149;51.094;17.002;2023-02-28T07:01:17;15.07;;;9.23;;
323;SDS011;149;51.094;17.002;2023-02-28T07:03:45;11.70;;;9.45;;
323;SDS011;149;51.094;17.002;2023-02-28T07:06:13;12.95;;;9.85;;
323;SDS011;149;51.094;17.002;2023-02-28T07:08:40;12.93;;;10.70;;
323;SDS011;149;51.094;17.002;2023-02-28T07:11:07;14.93;;;10.85;;
323;SDS011;149;51.094;17.002;2023-02-28T07:13:34;12.55;;;9.55;;
323;SDS011;149;51.094;17.002;2023-02-28T07:16:03;11.18;;;8.40;;
323;SDS011;149;51.094;17.002;2023-02-28T07:18:31;10.80;;;8.43;;
323;SDS011;149;51.094;17.002;2023-02-28T07:21:01;15.32;;;9.00;;
323;SDS011;149;51.094;17.002;2023-02-28T07:23:28;10.70;;;8.45;;
323;SDS011;149;51.094;17.002;2023-02-28T07:25:56;13.52;;;8.27;;
323;SDS011;149;51.094;17.002;2023-02-28T07:28:23;15.00;;;8.30;;
323;SDS011;149;51.094;17.002;2023-02-28T07:30:50;11.02;;;7.65;;
323;SDS011;149;51.094;17.002;2023-02-28T07:33:17;13.43;;;8.88;;
323;SDS011;149;51.094;17.002;2023-02-28T07:35:44;16.02;;;11.95;;
323;SDS011;149;51.094;17.002;2023-02-28T07:38:11;12.80;;;10.15;;
323;SDS011;149;51.094;17.002;2023-02-28T07:40:40;12.60;;;9.88;;
323;SDS011;149;51.094;17.002;2023-02-28T07:43:07;11.70;;;10.02;;
323;SDS011;149;51.094;17.002;2023-02-28T07:45:34;11.45;;;7.75;;
323;SDS011;149;51.094;17.002;2023-02-28T07:48:01;14.63;;;7.78;;
323;SDS011;149;51.094;17.002;2023-02-28T07:50:29;8.15;;;7.35;;
323;SDS011;149;51.094;17.002;2023-02-28T07:53:00;15.23;;;8.10;;
323;SDS011;149;51.094;17.002;2023-02-28T07:55:27;17.60;;;13.15;;
323;SDS011;149;51.094;17.002;2023-02-28T07:58:01;75.85;;;36.10;;
323;SDS011;149;51.094;17.002;2023-02-28T08:00:28;63.97;;;34.10;;
323;SDS011;149;51.094;17.002;2023-02-28T08:02:57;19.83;;;14.55;;
323;SDS011;149;51.094;17.002;2023-02-28T08:05:24;11.70;;;7.63;;
323;SDS011;149;51.094;17.002;2023-02-28T08:07:52;13.98;;;8.55;;
323;SDS011;149;51.094;17.002;2023-02-28T08:10:19;7.85;;;7.05;;
323;SDS011;149;51.094;17.002;2023-02-28T08:12:46;11.35;;;9.43;;
323;SDS011;149;51.094;17.002;2023-02-28T08:15:13;9.38;;;8.48;;
323;SDS011;149;51.094;17.002;2023-02-28T08:17:40;10.77;;;8.57;;
323;SDS011;149;51.094;17.002;2023-02-28T08:20:08;11.93;;;9.52;;
323;SDS011;149;51.094;17.002;2023-02-28T08:22:36;22.85;;;12.82;;
323;SDS011;149;51.094;17.002;2023-02-28T08:25:06;27.52;;;13.30;;
323;SDS011;149;51.094;17.002;2023-02-28T08:27:34;34.05;;;15.20;;
323;SDS011;149;51.094;17.002;2023-02-28T08:30:02;11.88;;;8.68;;
323;SDS011;149;51.094;17.002;2023-02-28T08:32:29;9.50;;;7.78;;
323;SDS011;149;51.094;17.002;2023-02-28T08:34:56;15.65;;;8.73;;
323;SDS011;149;51.094;17.002;2023-02-28T08:37:23;9.50;;;8.17;;
323;SDS011;149;51.094;17.002;2023-02-28T08:39:50;9.43;;;8.27;;
323;SDS011;149;51.094;17.002;2023-02-28T08:42:21;11.13;;;8.07;;
323;SDS011;149;51.094;17.002;2023-02-28T08:44:49;14.67;;;8.90;;
323;SDS011;149;51.094;17.002;2023-02-28T08:47:21;11.43;;;8.87;;
323;SDS011;149;51.094;17.002;2023-02-28T08:49:49;9.87;;;7.10;;
323;SDS011;149;51.094;17.002;2023-02-28T08:52:16;6.87;;;6.20;;
323;SDS011;149;51.094;17.002;2023-02-28T08:54:43;8.00;;;6.20;;
323;SDS011;149;51.094;17.002;2023-02-28T08:57:10;8.40;;;6.10;;
323;SDS011;149;51.094;17.002;2023-02-28T08:59:39;8.57;;;6.35;;
323;SDS011;149;51.094;17.002;2023-02-28T09:02:08;8.27;;;5.78;;
323;SDS011;149;51.094;17.002;2023-02-28T09:04:35;7.60;;;5.00;;
323;SDS011;149;51.094;17.002;2023-02-28T09:07:02;9.57;;;5.90;;
323;SDS011;149;51.094;17.002;2023-02-28T09:09:29;6.38;;;5.28;;
323;SDS011;149;51.094;17.002;2023-02-28T09:11:56;4.82;;;4.40;;
323;SDS011;149;51.094;17.002;2023-02-28T09:14:23;10.65;;;5.53;;
323;SDS011;149;51.094;17.002;2023-02-28T09:16:51;4.38;;;3.88;;
323;SDS011;149;51.094;17.002;2023-02-28T09:19:17;5.28;;;4.70;;
323;SDS011;149;51.094;17.002;2023-02-28T09:21:45;8.73;;;5.28;;
323;SDS011;149;51.094;17.002;2023-02-28T09:24:11;7.35;;;5.45;;
323;SDS011;149;51.094;17.002;2023-02-28T09:26:40;6.47;;;5.30;;
323;SDS011;149;51.094;17.002;2023-02-28T09:29:12;9.13;;;5.90;;
323;SDS011;149;51.094;17.002;2023-02-28T09:31:41;8.82;;;5.25;;
323;SDS011;149;51.094;17.002;2023-02-28T09:34:09;5.75;;;4.38;;
323;SDS011;149;51.094;17.002;2023-02-28T09:36:39;8.80;;;5.40;;
323;SDS011;149;51.094;17.002;2023-02-28T09:39:11;7.90;;;5.55;;
323;SDS011;149;51.094;17.002;2023-02-28T09:41:42;8.70;;;5.50;;
323;SDS011;149;51.094;17.002;2023-02-28T09:44:29;7.97;;;5.55;;
323;SDS011;149;51.094;17.002;2023-02-28T09:47:21;5.90;;;5.30;;
323;SDS011;149;51.094;17.002;2023-02-28T09:50:17;12.10;;;6.10;;
323;SDS011;149;51.094;17.002;2023-02-28T09:52:59;9.18;;;6.30;;
323;SDS011;149;51.094;17.002;2023-02-28T09:55:33;7.50;;;6.28;;
323;SDS011;149;51.094;17.002;2023-02-28T10:01:00;6.03;;;4.78;;
323;SDS011;149;51.094;17.002;2023-02-28T10:03:36;12.23;;;6.05;;
323;SDS011;149;51.094;17.002;2023-02-28T10:06:23;9.77;;;6.20;;
323;SDS011;149;51.094;17.002;2023-02-28T10:09:04;6.43;;;4.90;;
323;SDS011;149;51.094;17.002;2023-02-28T10:11:44;10.13;;;5.40;;
323;SDS011;149;51.094;17.002;2023-02-28T10:14:19;9.73;;;5.90;;
323;SDS011;149;51.094;17.002;2023-02-28T10:16:53;6.50;;;5.15;;
323;SDS011;149;51.094;17.002;2023-02-28T10:19:33;8.32;;;6.20;;
323;SDS011;149;51.094;17.002;2023-02-28T10:22:15;5.97;;;5.38;;
323;SDS011;149;51.094;17.002;2023-02-28T10:24:48;10.65;;;6.15;;
323;SDS011;149;51.094;17.002;2023-02-28T10:29:56;8.13;;;4.53;;
323;SDS011;149;51.094;17.002;2023-02-28T10:32:26;5.05;;;4.18;;
323;SDS011;149;51.094;17.002;2023-02-28T10:35:00;6.97;;;5.55;;
323;SDS011;149;51.094;17.002;2023-02-28T10:37:38;6.15;;;5.05;;
323;SDS011;149;51.094;17.002;2023-02-28T10:40:06;8.27;;;5.05;;
323;SDS011;149;51.094;17.002;2023-02-28T10:43:01;10.73;;;5.40;;
323;SDS011;149;51.094;17.002;2023-02-28T10:45:57;6.93;;;5.30;;
323;SDS011;149;51.094;17.002;2023-02-28T10:49:02;7.32;;;5.72;;
323;SDS011;149;51.094;17.002;2023-02-28T10:51:37;8.02;;;5.90;;
323;SDS011;149;51.094;17.002;2023-02-28T10:54:06;6.68;;;5.70;;
323;SDS011;149;51.094;17.002;2023-02-28T10:57:07;8.23;;;5.88;;
323;SDS011;149;51.094;17.002;2023-02-28T10:59:40;7.22;;;5.50;;
323;SDS011;149;51.094;17.002;2023-02-28T11:02:28;9.10;;;5.65;;
323;SDS011;149;51.094;17.002;2023-02-28T11:04:56;13.43;;;7.07;;
323;SDS011;149;51.094;17.002;2023-02-28T11:07:23;9.23;;;6.97;;
323;SDS011;149;51.094;17.002;2023-02-28T11:10:06;12.90;;;6.50;;
323;SDS011;149;51.094;17.002;2023-02-28T11:12:46;10.45;;;6.13;;
323;SDS011;149;51.094;17.002;2023-02-28T11:15:23;11.13;;;6.68;;
323;SDS011;149;51.094;17.002;2023-02-28T11:17:56;10.85;;;8.27;;
323;SDS011;149;51.094;17.002;2023-02-28T11:20:24;10.57;;;6.50;;
323;SDS011;149;51.094;17.002;2023-02-28T11:22:54;8.48;;;6.00;;
323;SDS011;149;51.094;17.002;2023-02-28T11:25:23;12.63;;;6.95;;
323;SDS011;149;51.094;17.002;2023-02-28T11:27:54;9.95;;;6.53;;
323;SDS011;149;51.094;17.002;2023-02-28T11:30:32;9.82;;;6.88;;
323;SDS011;149;51.094;17.002;2023-02-28T11:36:12;10.95;;;7.50;;
323;SDS011;149;51.094;17.002;2023-02-28T11:38:54;7.63;;;6.50;;
323;SDS011;149;51.094;17.002;2023-02-28T11:44:04;30.88;;;7.68;;
323;SDS011;149;51.094;17.002;2023-02-28T11:55:19;12.27;;;8.15;;
323;SDS011;149;51.094;17.002;2023-02-28T12:03:17;9.05;;;6.75;;
323;SDS011;149;51.094;17.002;2023-02-28T12:09:11;10.63;;;7.18;;
323;SDS011;149;51.094;17.002;2023-02-28T12:22:38;7.63;;;6.30;;
323;SDS011;149;51.094;17.002;2023-02-28T12:25:19;11.15;;;7.30;;
323;SDS011;149;51.094;17.002;2023-02-28T12:27:48;10.48;;;7.30;;
323;SDS011;149;51.094;17.002;2023-02-28T12:30:21;15.30;;;8.02;;
323;SDS011;149;51.094;17.002;2023-02-28T12:35:39;16.00;;;8.32;;
323;SDS011;149;51.094;17.002;2023-02-28T12:38:24;13.63;;;7.85;;
323;SDS011;149;51.094;17.002;2023-02-28T12:41:03;14.57;;;7.65;;
323;SDS011;149;51.094;17.002;2023-02-28T12:43:36;10.80;;;8.57;;
323;SDS011;149;51.094;17.002;2023-02-28T12:46:15;15.73;;;9.32;;
323;SDS011;149;51.094;17.002;2023-02-28T12:48:50;15.40;;;9.43;;
323;SDS011;149;51.094;17.002;2023-02-28T12:51:19;13.80;;;8.75;;
323;SDS011;149;51.094;17.002;2023-02-28T12:56:43;10.27;;;7.53;;
323;SDS011;149;51.094;17.002;2023-02-28T13:09:59;13.15;;;8.68;;
323;SDS011;149;51.094;17.002;2023-02-28T13:12:28;11.18;;;8.90;;
323;SDS011;149;51.094;17.002;2023-02-28T13:15:04;10.50;;;7.82;;
323;SDS011;149;51.094;17.002;2023-02-28T13:17:31;14.68;;;8.13;;
323;SDS011;149;51.094;17.002;2023-02-28T13:19:58;11.05;;;7.25;;
323;SDS011;149;51.094;17.002;2023-02-28T13:27:53;11.70;;;7.93;;
323;SDS011;149;51.094;17.002;2023-02-28T13:36:27;11.43;;;7.30;;
323;SDS011;149;51.094;17.002;2023-02-28T13:38:59;13.20;;;8.50;;
323;SDS011;149;51.094;17.002;2023-02-28T13:41:49;9.77;;;6.70;;
323;SDS011;149;51.094;17.002;2023-02-28T13:44:17;11.68;;;8.27;;
323;SDS011;149;51.094;17.002;2023-02-28T13:52:38;19.98;;;7.75;;
323;SDS011;149;51.094;17.002;2023-02-28T14:03:10;10.15;;;7.00;;
323;SDS011;149;51.094;17.002;2023-02-28T14:06:14;12.18;;;7.95;;
323;SDS011;149;51.094;17.002;2023-02-28T14:11:27;14.23;;;7.90;;
323;SDS011;149;51.094;17.002;2023-02-28T14:13:59;10.80;;;7.20;;
323;SDS011;149;51.094;17.002;2023-02-28T14:16:28;9.00;;;7.43;;
323;SDS011;149;51.094;17.002;2023-02-28T14:38:25;17.20;;;8.68;;
323;SDS011;149;51.094;17.002;2023-02-28T14:40:58;10.55;;;7.60;;
323;SDS011;149;51.094;17.002;2023-02-28T14:43:29;14.55;;;9.25;;
323;SDS011;149;51.094;17.002;2023-02-28T14:46:00;10.52;;;7.20;;
323;SDS011;149;51.094;17.002;2023-02-28T14:48:29;10.20;;;8.68;;
323;SDS011;149;51.094;17.002;2023-02-28T14:50:57;11.48;;;8.07;;
323;SDS011;149;51.094;17.002;2023-02-28T14:53:30;12.75;;;8.00;;
323;SDS011;149;51.094;17.002;2023-02-28T14:56:02;14.23;;;9.27;;
323;SDS011;149;51.094;17.002;2023-02-28T14:58:32;13.88;;;8.52;;
323;SDS011;149;51.094;17.002;2023-02-28T15:01:00;16.20;;;9.05;;
323;SDS011;149;51.094;17.002;2023-02-28T15:03:37;14.20;;;9.63;;
323;SDS011;149;51.094;17.002;2023-02-28T15:06:15;11.43;;;8.18;;
323;SDS011;149;51.094;17.002;2023-02-28T15:08:43;13.95;;;7.55;;
323;SDS011;149;51.094;17.002;2023-02-28T15:11:16;13.75;;;8.95;;
323;SDS011;149;51.094;17.002;2023-02-28T15:13:50;10.88;;;8.30;;
323;SDS011;149;51.094;17.002;2023-02-28T15:16:35;14.75;;;7.90;;
323;SDS011;149;51.094;17.002;2023-02-28T15:19:05;12.52;;;8.23;;
323;SDS011;149;51.094;17.002;2023-02-28T15:21:44;11.90;;;8.85;;
323;SDS011;149;51.094;17.002;2023-02-28T15:24:20;16.05;;;9.02;;
323;SDS011;149;51.094;17.002;2023-02-28T15:26:54;15.20;;;8.18;;
323;SDS011;149;51.094;17.002;2023-02-28T15:29:24;16.25;;;8.30;;
323;SDS011;149;51.094;17.002;2023-02-28T15:31:57;11.43;;;8.18;;
323;SDS011;149;51.094;17.002;2023-02-28T15:34:36;13.88;;;9.35;;
323;SDS011;149;51.094;17.002;2023-02-28T15:37:28;11.10;;;8.50;;
323;SDS011;149;51.094;17.002;2023-02-28T15:40:05;16.10;;;8.15;;
323;SDS011;149;51.094;17.002;2023-02-28T15:42:38;9.85;;;8.25;;
323;SDS011;149;51.094;17.002;2023-02-28T15:45:05;9.35;;;7.22;;
323;SDS011;149;51.094;17.002;2023-02-28T15:47:52;15.82;;;8.50;;
323;SDS011;149;51.094;17.002;2023-02-28T15:50:21;15.38;;;8.45;;
323;SDS011;149;51.094;17.002;2023-02-28T15:52:48;13.52;;;8.02;;
323;SDS011;149;51.094;17.002;2023-02-28T15:55:19;14.90;;;8.80;;
323;SDS011;149;51.094;17.002;2023-02-28T15:57:50;13.30;;;7.25;;
323;SDS011;149;51.094;17.002;2023-02-28T16:00:21;12.70;;;7.25;;
323;SDS011;149;51.094;17.002;2023-02-28T16:02:49;12.43;;;8.85;;
323;SDS011;149;51.094;17.002;2023-02-28T16:08:01;13.82;;;8.10;;
323;SDS011;149;51.094;17.002;2023-02-28T16:10:38;16.67;;;10.35;;
323;SDS011;149;51.094;17.002;2023-02-28T16:13:05;12.90;;;8.98;;
323;SDS011;149;51.094;17.002;2023-02-28T16:15:35;12.55;;;7.55;;
323;SDS011;149;51.094;17.002;2023-02-28T16:18:10;13.35;;;8.15;;
323;SDS011;149;51.094;17.002;2023-02-28T16:20:38;15.93;;;8.35;;
323;SDS011;149;51.094;17.002;2023-02-28T16:23:05;10.75;;;7.90;;
323;SDS011;149;51.094;17.002;2023-02-28T16:25:39;14.50;;;8.25;;
323;SDS011;149;51.094;17.002;2023-02-28T16:28:24;9.90;;;7.25;;
323;SDS011;149;51.094;17.002;2023-02-28T16:30:59;12.45;;;8.35;;
323;SDS011;149;51.094;17.002;2023-02-28T16:33:29;10.02;;;6.88;;
323;SDS011;149;51.094;17.002;2023-02-28T16:35:57;13.10;;;8.60;;
323;SDS011;149;51.094;17.002;2023-02-28T16:38:24;11.75;;;7.95;;
323;SDS011;149;51.094;17.002;2023-02-28T16:40:53;22.90;;;9.57;;
323;SDS011;149;51.094;17.002;2023-02-28T16:43:24;14.60;;;8.82;;
323;SDS011;149;51.094;17.002;2023-02-28T16:45:56;14.15;;;9.00;;
323;SDS011;149;51.094;17.002;2023-02-28T16:48:26;10.40;;;8.07;;
323;SDS011;149;51.094;17.002;2023-02-28T16:50:53;14.40;;;10.15;;
323;SDS011;149;51.094;17.002;2023-02-28T16:53:20;14.60;;;9.88;;
323;SDS011;149;51.094;17.002;2023-02-28T16:55:47;12.98;;;9.18;;
323;SDS011;149;51.094;17.002;2023-02-28T16:58:15;18.88;;;10.70;;
323;SDS011;149;51.094;17.002;2023-02-28T17:00:43;13.80;;;9.55;;
323;SDS011;149;51.094;17.002;2023-02-28T17:03:19;16.20;;;10.02;;
323;SDS011;149;51.094;17.002;2023-02-28T17:05:58;18.15;;;13.20;;
323;SDS011;149;51.094;17.002;2023-02-28T17:08:25;18.15;;;11.73;;
323;SDS011;149;51.094;17.002;2023-02-28T17:10:55;20.67;;;13.40;;
323;SDS011;149;51.094;17.002;2023-02-28T17:13:23;22.33;;;12.35;;
323;SDS011;149;51.094;17.002;2023-02-28T17:15:50;18.08;;;12.70;;
323;SDS011;149;51.094;17.002;2023-02-28T17:18:20;18.45;;;12.40;;
323;SDS011;149;51.094;17.002;2023-02-28T17:20:49;19.90;;;13.73;;
323;SDS011;149;51.094;17.002;2023-02-28T17:23:16;20.88;;;14.30;;
323;SDS011;149;51.094;17.002;2023-02-28T17:25:44;16.08;;;12.18;;
323;SDS011;149;51.094;17.002;2023-02-28T17:28:23;15.63;;;11.50;;
323;SDS011;149;51.094;17.002;2023-02-28T17:30:52;21.55;;;13.38;;
323;SDS011;149;51.094;17.002;2023-02-28T17:33:19;14.90;;;11.77;;
323;SDS011;149;51.094;17.002;2023-02-28T17:35:46;18.23;;;12.15;;
323;SDS011;149;51.094;17.002;2023-02-28T17:38:17;17.98;;;13.77;;
323;SDS011;149;51.094;17.002;2023-02-28T17:40:45;19.23;;;12.40;;
323;SDS011;149;51.094;17.002;2023-02-28T17:43:14;21.13;;;13.35;;
323;SDS011;149;51.094;17.002;2023-02-28T17:45:41;17.73;;;12.57;;
323;SDS011;149;51.094;17.002;2023-02-28T17:48:09;17.60;;;13.50;;
323;SDS011;149;51.094;17.002;2023-02-28T17:50:38;22.63;;;14.80;;
323;SDS011;149;51.094;17.002;2023-02-28T17:53:05;21.88;;;13.95;;
323;SDS011;149;51.094;17.002;2023-02-28T17:55:33;23.45;;;16.77;;
323;SDS011;149;51.094;17.002;2023-02-28T17:58:01;23.23;;;15.82;;
323;SDS011;149;51.094;17.002;2023-02-28T18:00:30;22.20;;;15.52;;
323;SDS011;149;51.094;17.002;2023-02-28T18:03:00;17.67;;;13.52;;
323;SDS011;149;51.094;17.002;2023-02-28T18:05:27;22.27;;;15.02;;
323;SDS011;149;51.094;17.002;2023-02-28T18:07:56;26.23;;;16.83;;
323;SDS011;149;51.094;17.002;2023-02-28T18:10:24;29.77;;;17.48;;